Newark, Texas
Current Conditions -  °F | °C
As of 11:53 AM on Thursday 30 Oct 2014 (Local Time) from KAFW Reporting Station
Few Clouds Few Clouds  
Wind Chill: 72°   Ceiling: Unl
Heat Index: 72°   Visibility: 10mi
Dew Point: 47°   Wind: 13mph
Humidity: 41%   Direction: 180°S
Pressure: 30.15"   Gusts: 17mph
Location:  33°N, 97.48°W
Report Text: KAFW 301653Z 18011G15KT 10SM FEW070 22/08 A3015 RMK AO2 SLP204 T02220083
Loading
Personal Weather Stations






























Interactive Weather Map
Tropical Storm Tracking
New forecast layout! Learn more

10-Day Weather Forecast

Advertisements
Track Severe Weather on mobile